Meteorología y climatología de Navarra
Datos de la estación - Meteo Navarra

Estación de Gorramendi GN

Altitud 1071 m.


Datos desde el 26/03/2020 hasta el 27/03/2020 en horario solar
Los datos son PROVISIONALES

Anterior Página 1 de 1 Siguiente Descargar: Formato para Excel 2000 o superior   Formato csv   Formato para OpenOffice Calc
Fecha Temperatura Humedad relativa Radiación global Insolación Precipitación Vel. viento 10 m Vel. viento 10 m Dir. viento 10 m
ºC % W/m² s l/m² m/s km/h º
26/03/2020 0:00 1.9 98 0.0 0 0.0 8.9 31.9 325
26/03/2020 0:10 1.9 98 0.0 0 0.0 8.3 29.8 322
26/03/2020 0:20 1.9 98 0.0 0 0.0 8.3 29.9 319
26/03/2020 0:30 2.0 98 0.0 0 0.0 9.0 32.3 322
26/03/2020 0:40 2.1 98 0.0 0 0.0 7.5 27.0 323
26/03/2020 0:50 1.9 98 0.0 0 0.0 7.1 25.4 310
26/03/2020 1:00 2.0 98 0.0 0 0.0 7.0 25.3 304
26/03/2020 1:10 1.9 98 0.0 0 0.0 6.5 23.4 303
26/03/2020 1:20 1.9 98 0.0 0 0.0 7.3 26.2 306
26/03/2020 1:30 2.0 98 0.0 0 0.0 8.3 29.8 318
26/03/2020 1:40 2.3 98 0.0 0 0.0 8.8 31.8 318
26/03/2020 1:50 2.1 98 0.0 0 0.0 7.3 26.1 322
26/03/2020 2:00 2.1 98 0.0 0 0.0 7.4 26.8 324
26/03/2020 2:10 2.2 98 0.0 0 0.0 7.4 26.6 340
26/03/2020 2:20 2.3 99 0.0 0 0.0 8.6 31.0 329
26/03/2020 2:30 2.2 99 0.0 0 0.0 9.7 34.8 334
26/03/2020 2:40 2.0 98 0.0 0 0.0 10.2 36.7 334
26/03/2020 2:50 1.7 98 0.0 0 0.0 10.1 36.2 344
26/03/2020 3:00 1.1 98 0.0 0 0.0 11.1 40.0 346
26/03/2020 3:10 0.6 98 0.0 0 0.0 12.7 45.7 355
26/03/2020 3:20 0.8 97 0.0 0 0.0 12.3 44.3 360
26/03/2020 3:30 1.0 85 0.0 0 0.0 11.0 39.6 2
26/03/2020 3:40 1.1 79 0.0 0 0.0 10.2 36.8 5
26/03/2020 3:50 1.1 86 0.0 0 0.0 11.3 40.5 2
26/03/2020 4:00 1.1 91 0.0 0 0.0 10.3 37.0 6
26/03/2020 4:10 1.1 93 0.0 0 0.0 9.8 35.4 6
26/03/2020 4:20 1.0 93 0.0 0 0.0 9.2 33.1 10
26/03/2020 4:30 1.0 93 0.0 0 0.0 10.1 36.3 11
26/03/2020 4:40 1.1 95 0.0 0 0.0 11.1 39.9 9
26/03/2020 4:50 1.0 94 0.0 0 0.0 11.6 41.7 12
26/03/2020 5:00 1.0 92 0.0 0 0.0 12.3 44.4 6
26/03/2020 5:10 1.0 91 0.0 0 0.0 12.7 45.8 1
26/03/2020 5:20 1.1 93 0.0 0 0.0 13.5 48.5 2
26/03/2020 5:30 1.0 94 0.0 0 0.0 15.9 57.3 7
26/03/2020 5:40 0.9 87 0.0 0 0.0 16.4 59.0 9
26/03/2020 5:50 0.9 82 0.0 0 0.0 15.4 55.5 5
26/03/2020 6:00 0.8 83 0.0 0 0.0 14.3 51.4 5
26/03/2020 6:10 0.7 84 0.0 0 0.0 14.3 51.6 5
26/03/2020 6:20 0.7 84 0.0 0 0.0 14.9 53.7 9
26/03/2020 6:30 0.6 84 8.4 0 0.0 13.9 49.9 5
26/03/2020 6:40 0.6 84 27.1 0 0.0 14.4 51.8 6
26/03/2020 6:50 0.6 84 30.8 0 0.0 13.6 49.0 4
26/03/2020 7:00 0.6 85 54.8 104 0.0 13.2 47.6 8
26/03/2020 7:10 0.6 84 40.0 22 0.0 13.2 47.3 11
26/03/2020 7:20 0.4 86 33.2 0 0.0 12.0 43.2 10
26/03/2020 7:30 0.1 93 36.9 0 0.0 12.0 43.2 20
26/03/2020 7:40 -0.3 96 38.1 0 0.0 11.5 41.5 25
26/03/2020 7:50 -0.6 90 61.5 0 0.0 12.4 44.6 30
26/03/2020 8:00 -0.6 79 84.3 0 0.0 12.6 45.3 27
26/03/2020 8:10 -0.7 66 95.5 0 0.0 12.2 44.0 26
26/03/2020 8:20 -0.6 62 160.2 80 0.0 11.7 42.2 25
26/03/2020 8:30 -0.6 59 273.0 326 0.0 12.4 44.7 27
26/03/2020 8:40 -0.5 60 492.5 544 0.0 10.5 37.8 24
26/03/2020 8:50 -0.2 61 311.3 360 0.0 10.4 37.3 17
26/03/2020 9:00 -0.2 65 462.1 398 0.0 10.2 36.6 14
26/03/2020 9:10 -0.1 66 513.9 554 0.0 10.3 37.0 10
26/03/2020 9:20 0.1 70 540.7 516 0.0 10.5 37.7 5
26/03/2020 9:30 0.2 71 379.2 394 0.0 13.4 48.3 5
26/03/2020 9:40 0.3 73 522.7 348 0.0 12.8 46.0 6
26/03/2020 9:50 0.0 74 378.5 196 0.0 13.5 48.4 357
26/03/2020 10:00 0.0 74 608.6 428 0.0 13.7 49.1 5
26/03/2020 10:10 -0.1 70 725.8 584 0.0 12.1 43.5 4
26/03/2020 10:20 0.1 67 777.4 600 0.0 12.8 45.9 355
26/03/2020 10:30 0.2 59 792.1 600 0.0 14.2 51.2 4
26/03/2020 10:40 0.1 57 808.0 600 0.0 12.7 45.8 360
26/03/2020 10:50 0.3 55 824.0 600 0.0 12.4 44.8 2
26/03/2020 11:00 0.6 58 830.0 600 0.0 10.1 36.4 1
26/03/2020 11:10 0.6 60 845.0 600 0.0 11.1 40.0 4
26/03/2020 11:20 0.8 60 852.0 600 0.0 12.4 44.5 360
26/03/2020 11:30 0.9 62 843.0 588 0.0 11.6 41.7 358
26/03/2020 11:40 0.9 60 864.0 600 0.0 12.6 45.2 358
26/03/2020 11:50 0.7 60 866.0 600 0.0 11.8 42.6 350
26/03/2020 12:00 0.8 59 873.0 600 0.0 12.7 45.8 356
26/03/2020 12:10 1.3 58 861.0 600 0.0 10.8 38.9 356
26/03/2020 12:20 1.2 55 864.0 600 0.0 9.9 35.5 346
26/03/2020 12:30 1.6 60 748.7 500 0.0 10.9 39.2 357
26/03/2020 12:40 1.2 62 811.0 552 0.0 12.0 43.3 355
26/03/2020 12:50 1.1 62 639.8 400 0.0 12.4 44.5 3
26/03/2020 13:00 0.9 61 687.4 470 0.0 12.7 45.8 2
26/03/2020 13:10 1.1 61 854.0 600 0.0 12.7 45.5 358
26/03/2020 13:20 1.0 62 743.2 518 0.0 12.7 45.8 355
26/03/2020 13:30 1.2 60 816.0 600 0.0 11.0 39.7 357
26/03/2020 13:40 1.7 60 812.0 600 0.0 11.0 39.5 0
26/03/2020 13:50 1.1 58 796.1 600 0.0 10.5 37.7 355
26/03/2020 14:00 1.3 59 759.5 592 0.0 10.6 38.3 356
26/03/2020 14:10 1.8 60 777.1 600 0.0 10.0 35.9 341
26/03/2020 14:20 1.4 62 628.2 474 0.0 11.8 42.4 358
26/03/2020 14:30 1.3 61 722.4 586 0.0 11.0 39.5 348
26/03/2020 14:40 1.9 63 640.0 450 0.0 10.4 37.3 350
26/03/2020 14:50 1.2 66 488.2 380 0.0 12.2 44.0 350
26/03/2020 15:00 1.1 65 599.7 534 0.0 12.3 44.4 353
26/03/2020 15:10 1.5 67 654.5 600 0.0 11.6 41.8 1
26/03/2020 15:20 1.8 68 589.6 556 0.0 11.3 40.7 354
26/03/2020 15:30 1.7 68 597.0 600 0.0 11.2 40.3 352
26/03/2020 15:40 1.4 70 605.3 600 0.0 10.7 38.6 350
26/03/2020 15:50 1.4 69 546.2 600 0.0 9.9 35.7 336
26/03/2020 16:00 1.0 71 232.5 168 0.0 11.2 40.5 356
26/03/2020 16:10 1.0 72 482.5 518 0.0 9.1 32.8 360
26/03/2020 16:20 1.1 71 358.5 514 0.0 9.5 34.3 354
26/03/2020 16:30 0.9 71 349.6 498 0.0 8.5 30.4 353
26/03/2020 16:40 1.2 71 336.9 600 0.0 8.1 29.3 352
26/03/2020 16:50 1.4 68 351.0 600 0.0 7.6 27.5 332
26/03/2020 17:00 1.5 68 305.7 600 0.0 7.9 28.5 322
26/03/2020 17:10 1.4 68 207.2 544 0.0 8.1 29.3 349
26/03/2020 17:20 0.8 68 168.0 600 0.0 7.8 28.2 346
26/03/2020 17:30 0.7 71 139.6 600 0.0 7.5 26.9 352
26/03/2020 17:40 0.7 73 110.6 600 0.0 7.2 25.8 356
26/03/2020 17:50 0.5 73 81.5 600 0.0 7.3 26.1 357
26/03/2020 18:00 0.2 75 56.8 600 0.0 8.0 28.6 359
26/03/2020 18:10 0.0 76 35.0 448 0.0 7.8 27.9 357
26/03/2020 18:20 -0.1 77 15.8 0 0.0 8.1 29.0 355
26/03/2020 18:30 -0.3 78 0.0 0 0.0 7.9 28.5 354
26/03/2020 18:40 -0.3 78 0.0 0 0.0 8.2 29.6 353
26/03/2020 18:50 -0.5 80 0.0 0 0.0 7.7 27.7 356
26/03/2020 19:00 -0.5 80 0.0 0 0.0 7.2 25.8 357
26/03/2020 19:10 -0.6 80 0.0 0 0.0 7.3 26.3 352
26/03/2020 19:20 -0.6 80 0.0 0 0.0 7.7 27.7 347
26/03/2020 19:30 -0.6 81 0.0 0 0.0 7.2 25.8 350
26/03/2020 19:40 -0.7 80 0.0 0 0.0 6.6 23.6 353
26/03/2020 19:50 -0.6 80 0.0 0 0.0 6.0 21.6 352
26/03/2020 20:00 -0.7 81 0.0 0 0.0 5.9 21.2 353
26/03/2020 20:10 -0.6 81 0.0 0 0.0 6.2 22.2 352
26/03/2020 20:20 -0.6 81 0.0 0 0.0 6.1 22.1 355
26/03/2020 20:30 -0.6 81 0.0 0 0.0 6.3 22.6 358
26/03/2020 20:40 -0.7 82 0.0 0 0.0 6.1 21.8 2
26/03/2020 20:50 -0.7 82 0.0 0 0.0 6.0 21.6 0
26/03/2020 21:00 -0.7 83 0.0 0 0.0 5.8 21.0 2
26/03/2020 21:10 -0.7 85 0.0 0 0.0 5.8 20.8 6
26/03/2020 21:20 -0.7 85 0.0 0 0.0 5.0 17.9 6
26/03/2020 21:30 -0.6 86 0.0 0 0.0 4.9 17.7 6
26/03/2020 21:40 -0.7 86 0.0 0 0.0 5.3 19.1 4
26/03/2020 21:50 -0.7 86 0.0 0 0.0 5.4 19.4 8
26/03/2020 22:00 -0.5 84 0.0 0 0.0 5.6 20.1 12
26/03/2020 22:10 -0.5 83 0.0 0 0.0 5.2 18.6 12
26/03/2020 22:20 -0.4 82 0.0 0 0.0 4.8 17.2 14
26/03/2020 22:30 -0.5 82 0.0 0 0.0 5.1 18.2 18
26/03/2020 22:40 -0.5 82 0.0 0 0.0 4.6 16.7 21
26/03/2020 22:50 -0.5 81 0.0 0 0.0 4.7 16.9 19
26/03/2020 23:00 -0.4 81 0.0 0 0.0 4.6 16.5 17
26/03/2020 23:10 -0.5 81 0.0 0 0.0 3.8 13.7 15
26/03/2020 23:20 -0.5 83 0.0 0 0.0 3.6 12.9 20
26/03/2020 23:30 -0.6 84 0.0 0 0.0 3.1 11.0 19
26/03/2020 23:40 -0.6 84 0.0 0 0.0 2.6 9.5 21
26/03/2020 23:50 -0.6 83 0.0 0 0.0 2.7 9.8 24
Anterior Página 1 de 1 Siguiente
Los datos de precipitación registrados en estaciones que están en cumbres son inferiores a lo real, como consecuencia del efecto del viento y de la nieve.


NOTA: Tipo de datos según el color:
   - Valores diarios o 10 minutos correctos
   - Valores diarios calculados a partir de un número de datos 10 minutos menor que 144 y mayor que 120, o de un número de datos semihorarios menor que 48 y mayor que 40 (caso de las estaciones de INTIA y del Ministerio)
   - Valores diez minutos estimados


Contacto        Enlaces        Aviso legal